Sebastian, FL (32958)

7:24 PM EDT on August 24, 2016 (GMT -0400)
KFLSEBAS1-CW7841 | | Change Station

Elev 23 ft 27.80 °N, 80.48 °W | Updated 58 seconds ago

Light Rain
Light Rain
79.6 °F
Feels Like 85 °F
N
0.0
Wind Variable Wind from NNE
Gusts 0.0 mph

Today
High -- | Low -- °F
--% Chance of Precip.
Yesterday
High -- | Low -- °F
Precip. -- in
Pressure 30.06 in
Visibility 7.0 miles
Clouds Mostly Cloudy 4600 ft
Overcast 5500 ft
Heat Index 85 °F
Dew Point 77 °F
Humidity 92%
Rainfall 0.11 in
Snow Depth Not available.
6:57 AM 7:50 PM
Waning Gibbous, 52% visible
METAR KVRB 242253Z 05007KT 7SM -RA BKN046 OVC055 26/24 A3006 RMK AO2 RAB36 SLP179 P0001 T02610244
Pressure 30.06 in
Visibility 7.0 miles
Clouds Mostly Cloudy 4600 ft
Overcast 5500 ft
Heat Index 85 °F
Dew Point 77 °F
Humidity 92%
Rainfall 0.11 in
Snow Depth Not available.
6:57 AM 7:50 PM
Waning Gibbous, 52% visible
METAR KVRB 242253Z 05007KT 7SM -RA BKN046 OVC055 26/24 A3006 RMK AO2 RAB36 SLP179 P0001 T02610244
A tropical disturbance we've monitored since last week, may have a dangerous future in store for the southeast U.S. and Gulf coasts this weekend into next week. The National Weather Service has issued a flash flood watch for Puerto Rico and the U.S. Virgin Islands. Rainfall totals of 2-4 inches (locally higher) are expected through Wednesday night in those areas.

The National Hurricane Center says this system has a medium to high chance of development into a tropical depression or tropical storm over the next 2 to 5 days. A tight consensus of our guidance suggests the disturbance should continue in a general west or west-northwest trajectory the next several days.

10-Day Weather Forecast

Almanac

Astronomy

Aug. 24, 2016 Rise Set
Actual Time
Civil Twilight
Nautical Twilight
Astronomical Twilight
Moon
Length of Visible Light
Length of Day
Tomorrow will be .
, % of the Moon is Illuminated

Today's Extremes

State Highs State Lows

Community

WunderPhotos

Upload Photos

1,934,731 photos uploaded!

WunderBlog® & News

Nearby

Air Quality

  Air Quality AQ Index Pollutant
Not available.

Snow Depth

Station Depth Elevation

Earthquake Activity

City Distance Mag. Time & Date
Minimum magnitude displayed is 2.5.

Coastal Water Temperatures

Place Temperature

Stations

Nearby Weather Stations

Station Location Temp. Windchill Dew Point Humidity Wind Precip. Elev Updated Type
                   

Watches & Warnings

There are currently no watches in effect.